sensor_id;sensor_type;location;lat;lon;timestamp;temperature;humidity
24472;DHT22;12636;50.852;5.676;2024-03-22T00:00:16;11.50;99.90
24472;DHT22;12636;50.852;5.676;2024-03-22T00:02:44;11.50;99.90
24472;DHT22;12636;50.852;5.676;2024-03-22T00:05:11;11.60;99.90
24472;DHT22;12636;50.852;5.676;2024-03-22T00:07:36;11.50;99.90
24472;DHT22;12636;50.852;5.676;2024-03-22T00:10:04;11.50;99.90
24472;DHT22;12636;50.852;5.676;2024-03-22T00:12:30;11.50;99.90
24472;DHT22;12636;50.852;5.676;2024-03-22T00:14:57;11.60;99.90
24472;DHT22;12636;50.852;5.676;2024-03-22T00:17:23;11.60;99.90
24472;DHT22;12636;50.852;5.676;2024-03-22T00:19:51;11.70;99.90
24472;DHT22;12636;50.852;5.676;2024-03-22T00:22:17;11.60;99.90
24472;DHT22;12636;50.852;5.676;2024-03-22T00:24:44;11.60;99.90
24472;DHT22;12636;50.852;5.676;2024-03-22T00:27:10;11.60;99.90
24472;DHT22;12636;50.852;5.676;2024-03-22T00:29:38;11.60;99.90
24472;DHT22;12636;50.852;5.676;2024-03-22T00:32:04;11.60;99.90
24472;DHT22;12636;50.852;5.676;2024-03-22T00:34:32;11.70;99.90
24472;DHT22;12636;50.852;5.676;2024-03-22T00:37:00;11.70;99.90
24472;DHT22;12636;50.852;5.676;2024-03-22T00:39:27;11.80;99.90
24472;DHT22;12636;50.852;5.676;2024-03-22T00:41:53;11.60;99.90
24472;DHT22;12636;50.852;5.676;2024-03-22T00:44:20;11.60;99.90
24472;DHT22;12636;50.852;5.676;2024-03-22T00:46:45;11.60;99.90
24472;DHT22;12636;50.852;5.676;2024-03-22T00:49:12;11.60;99.90
24472;DHT22;12636;50.852;5.676;2024-03-22T00:51:38;11.60;99.90
24472;DHT22;12636;50.852;5.676;2024-03-22T00:54:06;11.50;99.90
24472;DHT22;12636;50.852;5.676;2024-03-22T00:56:33;11.60;99.90
24472;DHT22;12636;50.852;5.676;2024-03-22T00:58:59;11.60;99.90
24472;DHT22;12636;50.852;5.676;2024-03-22T01:01:25;11.50;99.90
24472;DHT22;12636;50.852;5.676;2024-03-22T01:03:52;11.60;99.90
24472;DHT22;12636;50.852;5.676;2024-03-22T01:06:18;11.70;99.90
24472;DHT22;12636;50.852;5.676;2024-03-22T01:08:50;11.70;99.90
24472;DHT22;12636;50.852;5.676;2024-03-22T01:11:18;11.80;99.90
24472;DHT22;12636;50.852;5.676;2024-03-22T01:13:46;11.80;99.90
24472;DHT22;12636;50.852;5.676;2024-03-22T01:16:12;11.90;99.90
24472;DHT22;12636;50.852;5.676;2024-03-22T01:18:39;11.90;99.90
24472;DHT22;12636;50.852;5.676;2024-03-22T01:21:05;12.00;99.90
24472;DHT22;12636;50.852;5.676;2024-03-22T01:23:32;11.90;99.90
24472;DHT22;12636;50.852;5.676;2024-03-22T01:25:58;12.00;99.90
24472;DHT22;12636;50.852;5.676;2024-03-22T01:28:26;12.00;99.90
24472;DHT22;12636;50.852;5.676;2024-03-22T01:30:52;12.00;99.90
24472;DHT22;12636;50.852;5.676;2024-03-22T01:33:19;12.00;99.90
24472;DHT22;12636;50.852;5.676;2024-03-22T01:35:45;11.90;99.90
24472;DHT22;12636;50.852;5.676;2024-03-22T01:38:12;12.00;99.90
24472;DHT22;12636;50.852;5.676;2024-03-22T01:40:37;11.90;99.90
24472;DHT22;12636;50.852;5.676;2024-03-22T01:43:04;11.90;99.90
24472;DHT22;12636;50.852;5.676;2024-03-22T01:45:32;11.90;99.90
24472;DHT22;12636;50.852;5.676;2024-03-22T01:48:00;11.90;99.90
24472;DHT22;12636;50.852;5.676;2024-03-22T01:50:26;12.00;99.90
24472;DHT22;12636;50.852;5.676;2024-03-22T01:52:54;11.90;99.90
24472;DHT22;12636;50.852;5.676;2024-03-22T01:55:19;12.00;99.90
24472;DHT22;12636;50.852;5.676;2024-03-22T01:57:46;12.00;99.90
24472;DHT22;12636;50.852;5.676;2024-03-22T02:00:13;12.00;99.90
24472;DHT22;12636;50.852;5.676;2024-03-22T02:02:42;12.00;99.90
24472;DHT22;12636;50.852;5.676;2024-03-22T02:05:11;12.10;99.90
24472;DHT22;12636;50.852;5.676;2024-03-22T02:07:38;12.10;99.90
24472;DHT22;12636;50.852;5.676;2024-03-22T02:10:04;12.10;99.90
24472;DHT22;12636;50.852;5.676;2024-03-22T02:12:33;12.10;99.90
24472;DHT22;12636;50.852;5.676;2024-03-22T02:14:59;12.20;99.90
24472;DHT22;12636;50.852;5.676;2024-03-22T02:17:26;12.10;98.70
24472;DHT22;12636;50.852;5.676;2024-03-22T02:19:53;12.10;99.90
24472;DHT22;12636;50.852;5.676;2024-03-22T02:22:20;12.10;99.90
24472;DHT22;12636;50.852;5.676;2024-03-22T02:24:47;12.00;99.90
24472;DHT22;12636;50.852;5.676;2024-03-22T02:27:14;12.10;99.90
24472;DHT22;12636;50.852;5.676;2024-03-22T02:29:39;12.10;99.90
24472;DHT22;12636;50.852;5.676;2024-03-22T02:32:06;12.10;99.90
24472;DHT22;12636;50.852;5.676;2024-03-22T02:34:32;12.10;99.90
24472;DHT22;12636;50.852;5.676;2024-03-22T02:36:59;12.10;99.90
24472;DHT22;12636;50.852;5.676;2024-03-22T02:39:25;12.00;99.90
24472;DHT22;12636;50.852;5.676;2024-03-22T02:41:53;12.00;99.90
24472;DHT22;12636;50.852;5.676;2024-03-22T02:44:19;12.10;99.90
24472;DHT22;12636;50.852;5.676;2024-03-22T02:46:46;12.10;99.90
24472;DHT22;12636;50.852;5.676;2024-03-22T02:49:12;12.10;99.90
24472;DHT22;12636;50.852;5.676;2024-03-22T02:51:39;12.10;99.90
24472;DHT22;12636;50.852;5.676;2024-03-22T02:54:05;12.10;99.90
24472;DHT22;12636;50.852;5.676;2024-03-22T02:56:31;12.20;99.90
24472;DHT22;12636;50.852;5.676;2024-03-22T02:58:59;12.10;99.90
24472;DHT22;12636;50.852;5.676;2024-03-22T03:01:26;12.10;99.90
24472;DHT22;12636;50.852;5.676;2024-03-22T03:03:51;12.20;99.90
24472;DHT22;12636;50.852;5.676;2024-03-22T03:06:18;12.20;99.90
24472;DHT22;12636;50.852;5.676;2024-03-22T03:08:45;12.10;99.90
24472;DHT22;12636;50.852;5.676;2024-03-22T03:11:12;12.10;99.90
24472;DHT22;12636;50.852;5.676;2024-03-22T03:13:38;12.10;99.90
24472;DHT22;12636;50.852;5.676;2024-03-22T03:16:07;12.00;99.90
24472;DHT22;12636;50.852;5.676;2024-03-22T03:18:32;12.00;99.90
24472;DHT22;12636;50.852;5.676;2024-03-22T03:20:59;11.90;99.90
24472;DHT22;12636;50.852;5.676;2024-03-22T03:23:25;12.00;99.90
24472;DHT22;12636;50.852;5.676;2024-03-22T03:25:52;11.90;99.90
24472;DHT22;12636;50.852;5.676;2024-03-22T03:28:18;12.00;99.90
24472;DHT22;12636;50.852;5.676;2024-03-22T03:30:45;12.00;99.90
24472;DHT22;12636;50.852;5.676;2024-03-22T03:33:12;11.90;99.90
24472;DHT22;12636;50.852;5.676;2024-03-22T03:35:39;11.80;99.90
24472;DHT22;12636;50.852;5.676;2024-03-22T03:38:05;11.70;99.90
24472;DHT22;12636;50.852;5.676;2024-03-22T03:40:31;11.60;99.90
24472;DHT22;12636;50.852;5.676;2024-03-22T03:42:57;11.50;99.90
24472;DHT22;12636;50.852;5.676;2024-03-22T03:45:24;11.50;99.90
24472;DHT22;12636;50.852;5.676;2024-03-22T03:47:50;11.40;99.90
24472;DHT22;12636;50.852;5.676;2024-03-22T03:50:18;11.50;99.90
24472;DHT22;12636;50.852;5.676;2024-03-22T03:52:44;11.50;99.90
24472;DHT22;12636;50.852;5.676;2024-03-22T03:55:11;11.40;99.90
24472;DHT22;12636;50.852;5.676;2024-03-22T03:57:37;11.50;99.90
24472;DHT22;12636;50.852;5.676;2024-03-22T04:00:04;11.50;99.90
24472;DHT22;12636;50.852;5.676;2024-03-22T04:02:30;11.50;99.90
24472;DHT22;12636;50.852;5.676;2024-03-22T04:04:57;11.60;99.90
24472;DHT22;12636;50.852;5.676;2024-03-22T04:07:24;11.60;99.90
24472;DHT22;12636;50.852;5.676;2024-03-22T04:09:51;11.70;99.90
24472;DHT22;12636;50.852;5.676;2024-03-22T04:12:17;11.70;99.90
24472;DHT22;12636;50.852;5.676;2024-03-22T04:14:44;11.80;99.90
24472;DHT22;12636;50.852;5.676;2024-03-22T04:17:09;11.80;99.90
24472;DHT22;12636;50.852;5.676;2024-03-22T04:19:36;11.80;99.90
24472;DHT22;12636;50.852;5.676;2024-03-22T04:22:02;11.70;99.90
24472;DHT22;12636;50.852;5.676;2024-03-22T04:24:31;11.70;99.90
24472;DHT22;12636;50.852;5.676;2024-03-22T04:26:57;11.80;99.90
24472;DHT22;12636;50.852;5.676;2024-03-22T04:29:24;11.80;99.90
24472;DHT22;12636;50.852;5.676;2024-03-22T04:31:50;11.80;99.90
24472;DHT22;12636;50.852;5.676;2024-03-22T04:34:16;11.80;99.90
24472;DHT22;12636;50.852;5.676;2024-03-22T04:36:42;11.80;99.90
24472;DHT22;12636;50.852;5.676;2024-03-22T04:39:10;11.90;99.90
24472;DHT22;12636;50.852;5.676;2024-03-22T04:41:39;11.90;99.90
24472;DHT22;12636;50.852;5.676;2024-03-22T04:44:06;12.00;99.90
24472;DHT22;12636;50.852;5.676;2024-03-22T04:46:32;11.90;99.90
24472;DHT22;12636;50.852;5.676;2024-03-22T04:48:58;11.90;99.90
24472;DHT22;12636;50.852;5.676;2024-03-22T04:51:25;12.00;99.90
24472;DHT22;12636;50.852;5.676;2024-03-22T04:53:51;12.10;99.90
24472;DHT22;12636;50.852;5.676;2024-03-22T04:56:18;12.00;99.90
24472;DHT22;12636;50.852;5.676;2024-03-22T04:58:45;12.10;99.80
24472;DHT22;12636;50.852;5.676;2024-03-22T05:01:12;12.00;95.60
24472;DHT22;12636;50.852;5.676;2024-03-22T05:03:38;12.00;99.90
24472;DHT22;12636;50.852;5.676;2024-03-22T05:06:06;12.00;99.90
24472;DHT22;12636;50.852;5.676;2024-03-22T05:08:32;12.10;92.90
24472;DHT22;12636;50.852;5.676;2024-03-22T05:11:01;12.00;96.80
24472;DHT22;12636;50.852;5.676;2024-03-22T05:13:26;12.00;91.90
24472;DHT22;12636;50.852;5.676;2024-03-22T05:15:55;12.00;99.90
24472;DHT22;12636;50.852;5.676;2024-03-22T05:18:21;12.00;95.50
24472;DHT22;12636;50.852;5.676;2024-03-22T05:20:47;12.00;95.80
24472;DHT22;12636;50.852;5.676;2024-03-22T05:23:13;12.10;89.10
24472;DHT22;12636;50.852;5.676;2024-03-22T05:25:41;12.10;88.00
24472;DHT22;12636;50.852;5.676;2024-03-22T05:28:07;12.00;93.80
24472;DHT22;12636;50.852;5.676;2024-03-22T05:30:34;12.10;90.90
24472;DHT22;12636;50.852;5.676;2024-03-22T05:33:01;12.10;86.90
24472;DHT22;12636;50.852;5.676;2024-03-22T05:35:28;12.00;77.60
24472;DHT22;12636;50.852;5.676;2024-03-22T05:37:54;12.00;90.10
24472;DHT22;12636;50.852;5.676;2024-03-22T05:40:21;12.00;95.80
24472;DHT22;12636;50.852;5.676;2024-03-22T05:42:47;12.00;91.80
24472;DHT22;12636;50.852;5.676;2024-03-22T05:45:13;12.10;82.00
24472;DHT22;12636;50.852;5.676;2024-03-22T05:47:39;12.10;86.20
24472;DHT22;12636;50.852;5.676;2024-03-22T05:50:08;12.10;89.00
24472;DHT22;12636;50.852;5.676;2024-03-22T05:52:35;12.10;93.40
24472;DHT22;12636;50.852;5.676;2024-03-22T05:55:01;12.10;90.10
24472;DHT22;12636;50.852;5.676;2024-03-22T05:57:28;12.10;90.80
24472;DHT22;12636;50.852;5.676;2024-03-22T05:59:53;12.10;96.00
24472;DHT22;12636;50.852;5.676;2024-03-22T06:02:21;12.20;66.80
24472;DHT22;12636;50.852;5.676;2024-03-22T06:04:47;12.20;69.20
24472;DHT22;12636;50.852;5.676;2024-03-22T06:07:15;12.30;52.30
24472;DHT22;12636;50.852;5.676;2024-03-22T06:09:43;12.30;36.20
24472;DHT22;12636;50.852;5.676;2024-03-22T06:12:12;12.30;32.10
24472;DHT22;12636;50.852;5.676;2024-03-22T06:14:39;12.30;50.10
24472;DHT22;12636;50.852;5.676;2024-03-22T06:17:05;12.40;30.50
24472;DHT22;12636;50.852;5.676;2024-03-22T06:19:31;12.40;37.30
24472;DHT22;12636;50.852;5.676;2024-03-22T06:21:58;12.30;45.70
24472;DHT22;12636;50.852;5.676;2024-03-22T06:24:25;12.40;43.40
24472;DHT22;12636;50.852;5.676;2024-03-22T06:26:52;12.40;35.30
24472;DHT22;12636;50.852;5.676;2024-03-22T06:29:18;12.50;30.10
24472;DHT22;12636;50.852;5.676;2024-03-22T06:31:45;12.50;32.00
24472;DHT22;12636;50.852;5.676;2024-03-22T06:34:11;12.60;7.60
24472;DHT22;12636;50.852;5.676;2024-03-22T06:36:38;12.60;1.00
24472;DHT22;12636;50.852;5.676;2024-03-22T06:39:04;12.60;1.00
24472;DHT22;12636;50.852;5.676;2024-03-22T06:41:34;12.60;1.00
24472;DHT22;12636;50.852;5.676;2024-03-22T06:44:00;12.60;1.00
24472;DHT22;12636;50.852;5.676;2024-03-22T06:46:27;12.60;1.00
24472;DHT22;12636;50.852;5.676;2024-03-22T06:48:53;12.60;1.00
24472;DHT22;12636;50.852;5.676;2024-03-22T06:51:20;12.70;1.00
24472;DHT22;12636;50.852;5.676;2024-03-22T06:53:46;12.70;1.00
24472;DHT22;12636;50.852;5.676;2024-03-22T06:56:13;12.70;1.00
24472;DHT22;12636;50.852;5.676;2024-03-22T06:58:40;12.70;1.00
24472;DHT22;12636;50.852;5.676;2024-03-22T07:01:07;12.70;1.00
24472;DHT22;12636;50.852;5.676;2024-03-22T07:03:33;12.70;1.00
24472;DHT22;12636;50.852;5.676;2024-03-22T07:06:00;12.70;1.00
24472;DHT22;12636;50.852;5.676;2024-03-22T07:08:26;12.80;1.00
24472;DHT22;12636;50.852;5.676;2024-03-22T07:10:53;12.80;1.00
24472;DHT22;12636;50.852;5.676;2024-03-22T07:13:19;12.80;1.00
24472;DHT22;12636;50.852;5.676;2024-03-22T07:15:48;12.80;1.00
24472;DHT22;12636;50.852;5.676;2024-03-22T07:18:14;12.80;1.00
24472;DHT22;12636;50.852;5.676;2024-03-22T07:20:41;12.80;1.00
24472;DHT22;12636;50.852;5.676;2024-03-22T07:23:07;12.90;1.00
24472;DHT22;12636;50.852;5.676;2024-03-22T07:25:34;12.80;1.00
24472;DHT22;12636;50.852;5.676;2024-03-22T07:28:00;12.80;1.00
24472;DHT22;12636;50.852;5.676;2024-03-22T07:30:27;12.80;1.00
24472;DHT22;12636;50.852;5.676;2024-03-22T07:32:54;12.90;1.00
24472;DHT22;12636;50.852;5.676;2024-03-22T07:35:22;12.80;1.00
24472;DHT22;12636;50.852;5.676;2024-03-22T07:37:48;12.80;1.00
24472;DHT22;12636;50.852;5.676;2024-03-22T07:40:15;12.90;1.00
24472;DHT22;12636;50.852;5.676;2024-03-22T07:42:40;12.90;1.00
24472;DHT22;12636;50.852;5.676;2024-03-22T07:45:08;13.10;1.00
24472;DHT22;12636;50.852;5.676;2024-03-22T07:47:34;13.10;1.00
24472;DHT22;12636;50.852;5.676;2024-03-22T07:50:04;13.20;1.00
24472;DHT22;12636;50.852;5.676;2024-03-22T07:52:31;13.20;1.00
24472;DHT22;12636;50.852;5.676;2024-03-22T07:54:57;13.20;1.00
24472;DHT22;12636;50.852;5.676;2024-03-22T07:57:23;13.20;1.00
24472;DHT22;12636;50.852;5.676;2024-03-22T07:59:50;13.30;1.00
24472;DHT22;12636;50.852;5.676;2024-03-22T08:02:16;13.30;1.00
24472;DHT22;12636;50.852;5.676;2024-03-22T08:04:43;13.40;1.00
24472;DHT22;12636;50.852;5.676;2024-03-22T08:07:10;13.50;1.00
24472;DHT22;12636;50.852;5.676;2024-03-22T08:09:37;13.50;1.00
24472;DHT22;12636;50.852;5.676;2024-03-22T08:12:03;13.60;1.00
24472;DHT22;12636;50.852;5.676;2024-03-22T08:14:30;13.60;1.00
24472;DHT22;12636;50.852;5.676;2024-03-22T08:16:57;13.70;1.00
24472;DHT22;12636;50.852;5.676;2024-03-22T08:19:23;13.70;1.00
24472;DHT22;12636;50.852;5.676;2024-03-22T08:21:49;13.60;1.00
24472;DHT22;12636;50.852;5.676;2024-03-22T08:24:18;13.60;1.00
24472;DHT22;12636;50.852;5.676;2024-03-22T08:26:44;13.50;1.00
24472;DHT22;12636;50.852;5.676;2024-03-22T08:29:12;13.60;1.00
24472;DHT22;12636;50.852;5.676;2024-03-22T08:31:38;13.70;1.00
24472;DHT22;12636;50.852;5.676;2024-03-22T08:34:05;13.80;1.00
24472;DHT22;12636;50.852;5.676;2024-03-22T08:36:31;13.80;1.00
24472;DHT22;12636;50.852;5.676;2024-03-22T08:38:58;13.90;1.00
24472;DHT22;12636;50.852;5.676;2024-03-22T08:41:25;14.00;1.00
24472;DHT22;12636;50.852;5.676;2024-03-22T08:43:52;14.10;1.00
24472;DHT22;12636;50.852;5.676;2024-03-22T08:46:18;14.30;1.00
24472;DHT22;12636;50.852;5.676;2024-03-22T08:48:46;14.30;1.00
24472;DHT22;12636;50.852;5.676;2024-03-22T08:51:12;14.30;1.00
24472;DHT22;12636;50.852;5.676;2024-03-22T08:53:39;14.20;1.00
24472;DHT22;12636;50.852;5.676;2024-03-22T08:56:05;14.30;1.00
24472;DHT22;12636;50.852;5.676;2024-03-22T08:58:34;14.40;1.00
24472;DHT22;12636;50.852;5.676;2024-03-22T09:01:00;14.30;1.00
24472;DHT22;12636;50.852;5.676;2024-03-22T09:03:27;14.10;1.00
24472;DHT22;12636;50.852;5.676;2024-03-22T09:05:53;13.90;1.00
24472;DHT22;12636;50.852;5.676;2024-03-22T09:08:20;13.60;1.00
24472;DHT22;12636;50.852;5.676;2024-03-22T09:10:47;13.60;1.00
24472;DHT22;12636;50.852;5.676;2024-03-22T09:13:13;13.70;1.00
24472;DHT22;12636;50.852;5.676;2024-03-22T09:15:41;13.80;1.00
24472;DHT22;12636;50.852;5.676;2024-03-22T09:18:08;13.80;1.00
24472;DHT22;12636;50.852;5.676;2024-03-22T09:20:34;13.70;1.00
24472;DHT22;12636;50.852;5.676;2024-03-22T09:23:01;13.80;1.00
24472;DHT22;12636;50.852;5.676;2024-03-22T09:25:27;13.60;1.00
24472;DHT22;12636;50.852;5.676;2024-03-22T09:27:54;13.60;1.00
24472;DHT22;12636;50.852;5.676;2024-03-22T09:30:19;13.80;1.00
24472;DHT22;12636;50.852;5.676;2024-03-22T09:32:48;14.10;1.00
24472;DHT22;12636;50.852;5.676;2024-03-22T09:35:14;14.30;99.90
24472;DHT22;12636;50.852;5.676;2024-03-22T09:37:43;14.20;99.90
24472;DHT22;12636;50.852;5.676;2024-03-22T09:40:09;14.20;99.90
24472;DHT22;12636;50.852;5.676;2024-03-22T09:42:37;14.40;29.80
24472;DHT22;12636;50.852;5.676;2024-03-22T09:45:05;14.40;94.00
24472;DHT22;12636;50.852;5.676;2024-03-22T09:47:35;14.50;1.00
24472;DHT22;12636;50.852;5.676;2024-03-22T09:50:04;14.60;1.00
24472;DHT22;12636;50.852;5.676;2024-03-22T09:52:33;14.60;99.90
24472;DHT22;12636;50.852;5.676;2024-03-22T09:54:59;14.70;1.00
24472;DHT22;12636;50.852;5.676;2024-03-22T09:57:26;14.40;1.00
24472;DHT22;12636;50.852;5.676;2024-03-22T09:59:53;14.00;99.90
24472;DHT22;12636;50.852;5.676;2024-03-22T10:02:20;13.80;1.00
24472;DHT22;12636;50.852;5.676;2024-03-22T10:04:46;14.00;1.00
24472;DHT22;12636;50.852;5.676;2024-03-22T10:07:14;14.20;1.00
24472;DHT22;12636;50.852;5.676;2024-03-22T10:09:40;14.10;99.90
24472;DHT22;12636;50.852;5.676;2024-03-22T10:12:09;14.20;99.90
24472;DHT22;12636;50.852;5.676;2024-03-22T10:14:34;14.30;1.00
24472;DHT22;12636;50.852;5.676;2024-03-22T10:17:02;14.20;1.00
24472;DHT22;12636;50.852;5.676;2024-03-22T10:19:28;14.50;1.00
24472;DHT22;12636;50.852;5.676;2024-03-22T10:22:01;14.70;99.90
24472;DHT22;12636;50.852;5.676;2024-03-22T10:24:28;14.50;99.90
24472;DHT22;12636;50.852;5.676;2024-03-22T10:26:55;15.10;95.90
24472;DHT22;12636;50.852;5.676;2024-03-22T10:29:21;15.90;99.90
24472;DHT22;12636;50.852;5.676;2024-03-22T10:31:49;15.70;1.00
24472;DHT22;12636;50.852;5.676;2024-03-22T10:34:15;16.00;99.90
24472;DHT22;12636;50.852;5.676;2024-03-22T10:36:43;15.10;1.00
24472;DHT22;12636;50.852;5.676;2024-03-22T10:39:09;14.60;99.90
24472;DHT22;12636;50.852;5.676;2024-03-22T10:41:39;14.40;1.00
24472;DHT22;12636;50.852;5.676;2024-03-22T10:44:04;14.30;1.00
24472;DHT22;12636;50.852;5.676;2024-03-22T10:46:34;14.30;99.90
24472;DHT22;12636;50.852;5.676;2024-03-22T10:49:00;13.90;99.90
24472;DHT22;12636;50.852;5.676;2024-03-22T10:51:29;14.00;1.00
24472;DHT22;12636;50.852;5.676;2024-03-22T10:53:56;14.10;99.90
24472;DHT22;12636;50.852;5.676;2024-03-22T10:56:23;14.10;99.90
24472;DHT22;12636;50.852;5.676;2024-03-22T10:58:51;14.20;1.00
24472;DHT22;12636;50.852;5.676;2024-03-22T11:01:21;14.30;1.00
24472;DHT22;12636;50.852;5.676;2024-03-22T11:03:48;14.40;1.00
24472;DHT22;12636;50.852;5.676;2024-03-22T11:06:17;14.40;1.00
24472;DHT22;12636;50.852;5.676;2024-03-22T11:08:43;14.50;1.00
24472;DHT22;12636;50.852;5.676;2024-03-22T11:11:11;14.30;37.40
24472;DHT22;12636;50.852;5.676;2024-03-22T11:13:38;14.20;28.00
24472;DHT22;12636;50.852;5.676;2024-03-22T11:16:08;14.20;99.90
24472;DHT22;12636;50.852;5.676;2024-03-22T11:18:35;14.40;6.80
24472;DHT22;12636;50.852;5.676;2024-03-22T11:21:02;14.50;23.00
24472;DHT22;12636;50.852;5.676;2024-03-22T11:23:28;14.50;1.00
24472;DHT22;12636;50.852;5.676;2024-03-22T11:25:56;14.50;99.90
24472;DHT22;12636;50.852;5.676;2024-03-22T11:28:22;14.40;1.00
24472;DHT22;12636;50.852;5.676;2024-03-22T11:30:49;14.60;1.00
24472;DHT22;12636;50.852;5.676;2024-03-22T11:33:17;14.60;1.00
24472;DHT22;12636;50.852;5.676;2024-03-22T11:35:44;14.90;1.00
24472;DHT22;12636;50.852;5.676;2024-03-22T11:38:10;15.10;1.00
24472;DHT22;12636;50.852;5.676;2024-03-22T11:40:36;14.80;1.00
24472;DHT22;12636;50.852;5.676;2024-03-22T11:43:02;15.00;1.00
24472;DHT22;12636;50.852;5.676;2024-03-22T11:45:30;15.10;1.00
24472;DHT22;12636;50.852;5.676;2024-03-22T11:47:57;15.30;1.00
24472;DHT22;12636;50.852;5.676;2024-03-22T11:50:25;15.60;1.00
24472;DHT22;12636;50.852;5.676;2024-03-22T11:52:51;15.80;99.90
24472;DHT22;12636;50.852;5.676;2024-03-22T11:55:19;15.70;99.90
24472;DHT22;12636;50.852;5.676;2024-03-22T11:57:47;16.00;99.90
24472;DHT22;12636;50.852;5.676;2024-03-22T12:00:15;15.80;99.90
24472;DHT22;12636;50.852;5.676;2024-03-22T12:02:41;15.80;99.90
24472;DHT22;12636;50.852;5.676;2024-03-22T12:05:08;15.90;99.90
24472;DHT22;12636;50.852;5.676;2024-03-22T12:07:36;16.20;99.90
24472;DHT22;12636;50.852;5.676;2024-03-22T12:10:03;15.80;99.90
24472;DHT22;12636;50.852;5.676;2024-03-22T12:12:29;15.50;99.90
24472;DHT22;12636;50.852;5.676;2024-03-22T12:14:56;15.50;99.90
24472;DHT22;12636;50.852;5.676;2024-03-22T12:17:22;15.60;99.90
24472;DHT22;12636;50.852;5.676;2024-03-22T12:19:49;15.90;99.90
24472;DHT22;12636;50.852;5.676;2024-03-22T12:22:15;15.60;99.90
24472;DHT22;12636;50.852;5.676;2024-03-22T12:24:43;15.50;99.90
24472;DHT22;12636;50.852;5.676;2024-03-22T12:27:09;15.60;99.90
24472;DHT22;12636;50.852;5.676;2024-03-22T12:29:36;16.00;99.90
24472;DHT22;12636;50.852;5.676;2024-03-22T12:32:02;16.20;99.90
24472;DHT22;12636;50.852;5.676;2024-03-22T12:34:29;15.60;99.90
24472;DHT22;12636;50.852;5.676;2024-03-22T12:36:55;15.70;99.90
24472;DHT22;12636;50.852;5.676;2024-03-22T12:39:22;15.70;99.90
24472;DHT22;12636;50.852;5.676;2024-03-22T12:41:49;15.60;99.90
24472;DHT22;12636;50.852;5.676;2024-03-22T12:44:16;15.40;99.90
24472;DHT22;12636;50.852;5.676;2024-03-22T12:46:42;15.30;99.90
24472;DHT22;12636;50.852;5.676;2024-03-22T12:49:10;15.50;99.90
24472;DHT22;12636;50.852;5.676;2024-03-22T12:51:36;15.80;99.90
24472;DHT22;12636;50.852;5.676;2024-03-22T12:54:03;16.20;99.90
24472;DHT22;12636;50.852;5.676;2024-03-22T12:56:30;16.50;99.90
24472;DHT22;12636;50.852;5.676;2024-03-22T12:58:58;16.40;99.90
24472;DHT22;12636;50.852;5.676;2024-03-22T13:01:24;15.60;99.90
24472;DHT22;12636;50.852;5.676;2024-03-22T13:03:51;15.40;99.90
24472;DHT22;12636;50.852;5.676;2024-03-22T13:06:17;15.40;1.00
24472;DHT22;12636;50.852;5.676;2024-03-22T13:08:44;15.30;1.00
24472;DHT22;12636;50.852;5.676;2024-03-22T13:11:10;15.20;99.90
24472;DHT22;12636;50.852;5.676;2024-03-22T13:13:36;15.30;99.90
24472;DHT22;12636;50.852;5.676;2024-03-22T13:16:04;15.30;1.00
24472;DHT22;12636;50.852;5.676;2024-03-22T13:18:32;15.30;1.00
24472;DHT22;12636;50.852;5.676;2024-03-22T13:20:58;15.50;1.00
24472;DHT22;12636;50.852;5.676;2024-03-22T13:23:25;15.30;1.00
24472;DHT22;12636;50.852;5.676;2024-03-22T13:25:51;15.20;1.00
24472;DHT22;12636;50.852;5.676;2024-03-22T13:28:18;15.30;1.00
24472;DHT22;12636;50.852;5.676;2024-03-22T13:30:46;15.50;1.00
24472;DHT22;12636;50.852;5.676;2024-03-22T13:33:14;15.20;1.00
24472;DHT22;12636;50.852;5.676;2024-03-22T13:35:41;15.10;1.00
24472;DHT22;12636;50.852;5.676;2024-03-22T13:38:07;15.00;1.00
24472;DHT22;12636;50.852;5.676;2024-03-22T13:40:38;14.70;78.00
24472;DHT22;12636;50.852;5.676;2024-03-22T13:43:06;14.50;1.00
24472;DHT22;12636;50.852;5.676;2024-03-22T13:45:32;14.30;21.20
24472;DHT22;12636;50.852;5.676;2024-03-22T13:47:59;14.10;1.00
24472;DHT22;12636;50.852;5.676;2024-03-22T13:50:26;14.00;99.90
24472;DHT22;12636;50.852;5.676;2024-03-22T13:52:53;14.00;99.90
24472;DHT22;12636;50.852;5.676;2024-03-22T13:55:19;13.90;1.00
24472;DHT22;12636;50.852;5.676;2024-03-22T13:57:46;13.90;57.80
24472;DHT22;12636;50.852;5.676;2024-03-22T14:00:12;13.90;99.90
24472;DHT22;12636;50.852;5.676;2024-03-22T14:02:40;13.90;1.00
24472;DHT22;12636;50.852;5.676;2024-03-22T14:05:06;13.70;28.80
24472;DHT22;12636;50.852;5.676;2024-03-22T14:07:35;13.70;99.90
24472;DHT22;12636;50.852;5.676;2024-03-22T14:10:01;13.60;99.90
24472;DHT22;12636;50.852;5.676;2024-03-22T14:12:28;13.50;1.00
24472;DHT22;12636;50.852;5.676;2024-03-22T14:14:54;13.40;99.90
24472;DHT22;12636;50.852;5.676;2024-03-22T14:17:21;13.30;99.90
24472;DHT22;12636;50.852;5.676;2024-03-22T14:19:47;13.40;99.90
24472;DHT22;12636;50.852;5.676;2024-03-22T14:22:14;13.50;99.90
24472;DHT22;12636;50.852;5.676;2024-03-22T14:24:41;13.40;1.00
24472;DHT22;12636;50.852;5.676;2024-03-22T14:27:08;13.40;1.00
24472;DHT22;12636;50.852;5.676;2024-03-22T14:29:35;13.40;1.00
24472;DHT22;12636;50.852;5.676;2024-03-22T14:32:01;13.40;1.00
24472;DHT22;12636;50.852;5.676;2024-03-22T14:34:28;13.30;1.00
24472;DHT22;12636;50.852;5.676;2024-03-22T14:36:54;13.20;1.00
24472;DHT22;12636;50.852;5.676;2024-03-22T14:39:20;13.20;95.00
24472;DHT22;12636;50.852;5.676;2024-03-22T14:41:48;13.20;99.90
24472;DHT22;12636;50.852;5.676;2024-03-22T14:44:15;13.00;99.90
24472;DHT22;12636;50.852;5.676;2024-03-22T14:46:40;13.10;99.90
24472;DHT22;12636;50.852;5.676;2024-03-22T14:49:07;13.10;99.90
24472;DHT22;12636;50.852;5.676;2024-03-22T14:51:33;13.00;99.90
24472;DHT22;12636;50.852;5.676;2024-03-22T14:54:00;13.00;99.90
24472;DHT22;12636;50.852;5.676;2024-03-22T14:56:27;13.00;1.00
24472;DHT22;12636;50.852;5.676;2024-03-22T14:58:54;13.00;1.00
24472;DHT22;12636;50.852;5.676;2024-03-22T15:01:23;12.80;1.00
24472;DHT22;12636;50.852;5.676;2024-03-22T15:03:49;12.70;1.00
24472;DHT22;12636;50.852;5.676;2024-03-22T15:06:17;12.60;1.00
24472;DHT22;12636;50.852;5.676;2024-03-22T15:08:42;12.60;1.00
24472;DHT22;12636;50.852;5.676;2024-03-22T15:11:09;12.50;1.00
24472;DHT22;12636;50.852;5.676;2024-03-22T15:13:35;12.60;1.00
24472;DHT22;12636;50.852;5.676;2024-03-22T15:16:04;12.60;1.00
24472;DHT22;12636;50.852;5.676;2024-03-22T15:18:30;12.50;1.00
24472;DHT22;12636;50.852;5.676;2024-03-22T15:20:57;12.50;1.00
24472;DHT22;12636;50.852;5.676;2024-03-22T15:23:23;12.40;1.00
24472;DHT22;12636;50.852;5.676;2024-03-22T15:25:50;12.40;1.00
24472;DHT22;12636;50.852;5.676;2024-03-22T15:28:16;12.30;1.00
24472;DHT22;12636;50.852;5.676;2024-03-22T15:30:44;12.40;1.00
24472;DHT22;12636;50.852;5.676;2024-03-22T15:33:11;12.40;1.00